Nearby METAR Reports

 

KIAG - Niagara Falls, New York, USA
Distance from station: W 12mi, 20km
Updated: 10/15/2018 1:02pm
Light rain, Mist, Overcast
Light rain, Mist, Overcast
 Wind from W
Wind: W 23 mph , 37 km/h
Temperature: 55°F , 13°C
Dew Point: 54°F , 12°C
Humidity: 94%
Barometer: 1009.1 hPa
Summary: Light rain, Mist
Clouds: Overcast
Visibility: 6 miles , 10 km
Cloud details: Partly cloudy 700 ft
Mostly cloudy 1600 ft
Overcast 2100 ft
2018/10/15 17:02 KIAG 151702Z 27020KT 6SM -RA BR SCT007 BKN016 OVC021 13/12 A2980 RMK AO2 P0000 T01280117
KBUF - Buffalo/Cheektow, New York, USA
Distance from station: S 13mi, 21km
Updated: 10/15/2018 1:13pm
Rain, Mist, Overcast
Rain, Mist, Overcast
 Wind from WSW
Wind: WSW 22 mph , 35 km/h, Gust: 37 mph , 59 km/h
Temperature: 57°F , 14°C
Dew Point: 57°F , 14°C
Humidity: 100%
Barometer: 1008.8 hPa
Summary: Rain, Mist
Clouds: Overcast
Visibility: 1 3/4 miles , 5 km
Cloud details: Mostly cloudy 800 ft
Overcast 1500 ft
2018/10/15 17:13 KBUF 151713Z 24019G32KT 1 3/4SM R23/3500VP6000FT RA BR BKN008 OVC015 14/14 A2979 RMK AO2 PK WND 22032/1704 CIG 005V011 P0003 T01440139
 
KROC - Rochester, New York, USA
Distance from station: E 51mi, 82km
Updated: 10/15/2018 12:54pm
Overcast
Overcast
 Wind from SW
Wind: SW 10 mph , 17 km/h
Temperature: 61°F , 16°C
Dew Point: 55°F , 13°C
Humidity: 83%
Barometer: 1008.8 hPa
Clouds: Overcast
Visibility: 10 miles , 16 km
Cloud details: Overcast 2200 ft
2018/10/15 16:54 KROC 151654Z 23009KT 10SM OVC022 16/13 A2979 RMK AO2 SLP091 T01610128
CYSN - St. Catharines A, Ontario, Canada
Distance from station: WNW 25mi, 40km
Updated: 10/15/2018 1:00pm
Light rain, Mist, Overcast
Light rain, Mist, Overcast
 Wind from W
Wind: W 15 mph , 24 km/h
Temperature: 55°F , 13°C
Dew Point: 55°F , 13°C
Humidity: 100%
Barometer: 1009.1 hPa
Summary: Light rain, Mist
Clouds: Overcast
Visibility: 2 1/2 miles , 2 km
Cloud details: Few Clouds 900 ft
Mostly cloudy 1500 ft
Overcast 3200 ft
2018/10/15 17:00 CYSN 151700Z 26013KT 2 1/2SM -RA BR FEW009 BKN015 OVC032 13/13 A2980 RMK SC2SC4SC2 SLP094 DENSITY ALT 400FT
 
KOLE - Olean, New York, USA
Distance from station: SSE 63mi, 102km
Updated: 10/15/2018 1:15pm
Mist, Overcast
Mist, Overcast
 Wind from WSW
Wind: WSW 9 mph , 15 km/h, Gust: 20 mph , 31 km/h
Temperature: 54°F , 12°C
Dew Point: 54°F , 12°C
Humidity: 100%
Barometer: 1010.8 hPa
Summary: Mist
Clouds: Overcast
Visibility: 5 miles , 8 km
Cloud details: Overcast 600 ft
2018/10/15 17:15 KOLE 151715Z AUTO 24008G17KT 5SM BR OVC006 12/12 A2985 RMK AO2
KJHW - Jamestown, New York, USA
Distance from station: SSW 74mi, 119km
Updated: 10/15/2018 12:56pm
Light rain, Overcast
Light rain, Overcast
 Wind from WSW
Wind: WSW 15 mph , 24 km/h, Gust: 23 mph , 37 km/h
Temperature: 55°F , 13°C
Dew Point: 54°F , 12°C
Humidity: 94%
Barometer: 1011.9 hPa
Summary: Light rain
Clouds: Overcast
Visibility: 7 miles , 11 km
Cloud details: Overcast 700 ft
2018/10/15 16:56 KJHW 151656Z AUTO 25013G20KT 7SM -RA OVC007 13/12 A2988 RMK AO2 RAE04B44 CIG 005V012 SLP124 P0000 T01330122
 
CWWZ - Port Weller (mar, Ontario, Canada
Distance from station: WNW 28mi, 45km
Updated: 10/15/2018 1:00pm

 Wind from W
Wind: W 16 mph , 26 km/h, Gust: 26 mph , 43 km/h
Temperature: 57°F , 14°C
Dew Point: 54°F , 12°C
Humidity: 88%
2018/10/15 17:00 CWWZ 151700Z AUTO 26014G23KT 14/12 RMK AO1 3PAST HR 5006 PK WND 27026/1622 SLP091 P0001 T01380122 50006
CWPC - Port Colborne(Au, Ontario, Canada
Distance from station: WSW 33mi, 53km
Updated: 10/15/2018 1:00pm

 Wind from W
Wind: W 31 mph , 50 km/h
Temperature: 55°F , 13°C
Dew Point: 52°F , 11°C
Humidity: 88%
2018/10/15 17:00 CWPC 151700Z AUTO 28027KT 13/11 RMK AO1 PK WND 26037/1614 SLP100 T01340113 55004
 
CXVN - Vineland (au8), Ontario, Canada
Distance from station: W 36mi, 58km
Updated: 10/15/2018 1:00pm

 Wind from WSW
Wind: WSW 15 mph , 24 km/h, Gust: 21 mph , 33 km/h
Temperature: 55°F , 13°C
Dew Point: 52°F , 11°C
Humidity: 88%
2018/10/15 17:00 CXVN 151700Z AUTO 25013G18KT 13/11 RMK AO1 3PAST HR 5003 PK WND 25023/1643 SLP088 P0001 T01340113 50013
CYTZ - Toronto Il Vor, Ontario, Canada
Distance from station: NW 50mi, 81km
Updated: 10/15/2018 1:18pm
Overcast
Overcast
 Wind from WSW
Wind: WSW 18 mph , 30 km/h
Temperature: 57°F , 14°C
Dew Point: 52°F , 11°C
Humidity: 82%
Barometer: 1008.1 hPa
Clouds: Overcast
Visibility: 9 miles , 14 km
Cloud details: Partly cloudy 2100 ft
Mostly cloudy 2600 ft
Overcast 5500 ft
2018/10/15 17:18 CYTZ 151718Z AUTO 24016KT 9SM SCT021 BKN026 OVC055 14/11 A2977 RMK SLP084
 
CXTO - Toronto City, Ontario, Canada
Distance from station: NW 52mi, 84km
Updated: 10/15/2018 1:00pm

 
Temperature: 55°F , 13°C
Dew Point: 50°F , 10°C
Humidity: 82%
2018/10/15 17:00 CXTO 151700Z AUTO 13/10 RMK AO1 6011 SLP084 T01270097 50026
KDKK - Dunkirk, New York, USA
Distance from station: SW 52mi, 84km
Updated: 10/15/2018 1:10pm
Light rain, Mist, Overcast
Light rain, Mist, Overcast
 Wind from WSW
Wind: WSW 21 mph , 33 km/h, Gust: 31 mph , 50 km/h
Temperature: 57°F , 14°C
Dew Point: 55°F , 13°C
Humidity: 94%
Barometer: 1010.8 hPa
Summary: Light rain, Mist
Clouds: Overcast
Visibility: 1 3/4 miles , 5 km
Cloud details: Partly cloudy 900 ft
Mostly cloudy 1200 ft
Overcast 2200 ft
2018/10/15 17:10 KDKK 151710Z AUTO 24018G27KT 1 3/4SM -RA BR SCT009 BKN012 OVC022 14/13 A2985 RMK AO2 PK WND 24027/1708 RAB1659 P0002 T01390128
 
CYOO - Oshawa, Ontario, Canada
Distance from station: N 56mi, 90km
Updated: 10/15/2018 1:01pm
Light rain, Overcast
Light rain, Overcast
 Wind from W
Wind: W 16 mph , 26 km/h, Gust: 22 mph , 35 km/h
Temperature: 54°F , 12°C
Dew Point: 54°F , 12°C
Humidity: 100%
Barometer: 1007.5 hPa
Summary: Light rain
Clouds: Overcast
Visibility: 9 miles , 14 km
Cloud details: Partly cloudy 1000 ft
Mostly cloudy 3700 ft
Overcast 4500 ft
2018/10/15 17:01 CYOO 151701Z AUTO 26014G19KT 9SM -RA SCT010 BKN037 OVC045 12/12 A2975 RMK SLP078
CWWB - Burlington Piers, Ontario, Canada
Distance from station: WNW 56mi, 91km
Updated: 10/15/2018 1:00pm

 Wind from WSW
Wind: WSW 9 mph , 15 km/h, Gust: 17 mph , 28 km/h
Temperature: 57°F , 14°C
Dew Point: 52°F , 11°C
Humidity: 82%
2018/10/15 17:00 CWWB 151700Z AUTO 24008G15KT 14/11 RMK AO1 SLP089 T01360107 57005
 
CYYZ - Toronto/Pearson, Ontario, Canada
Distance from station: NW 60mi, 96km
Updated: 10/15/2018 1:00pm
Overcast
Overcast
 Wind from WSW
Wind: WSW 16 mph , 26 km/h, Gust: 25 mph , 41 km/h
Temperature: 55°F , 13°C
Dew Point: 52°F , 11°C
Humidity: 88%
Barometer: 1008.1 hPa
Clouds: Overcast
Visibility: 10 miles , 16 km
Cloud details: Few Clouds 1800 ft
Partly cloudy 4500 ft
Overcast 6000 ft
2018/10/15 17:00 CYYZ 151700Z 24014G22KT 10SM FEW018 SCT045 OVC060 13/11 A2977 RMK CF2SC2SC4 PRESFR SLP085 DENSITY ALT 700FT
CYKZ - Toronto Buttonvi, Ontario, Canada
Distance from station: NW 62mi, 99km
Updated: 10/15/2018 1:00pm
Overcast
Overcast
 Wind from WSW
Wind: WSW 8 mph , 13 km/h
Temperature: 54°F , 12°C
Dew Point: 52°F , 11°C
Humidity: 94%
Barometer: 1008.1 hPa
Clouds: Overcast
Visibility: 10 miles , 16 km
Cloud details: Few Clouds 800 ft
Partly cloudy 2000 ft
Overcast 5000 ft
2018/10/15 17:00 CYKZ 151700Z 25007KT 10SM FEW008 SCT020 OVC050 12/11 A2977 RMK CF1SC2SC5 SLP085
 
CXHM - Hamilton Rbg Cs, Ontario, Canada
Distance from station: W 62mi, 100km
Updated: 10/15/2018 1:00pm

 Wind from WSW
Wind: WSW 6 mph , 9 km/h
Temperature: 55°F , 13°C
Dew Point: 52°F , 11°C
Humidity: 88%
2018/10/15 17:00 CXHM 151700Z AUTO 25005KT 13/11 RMK AO1 6004 SLP090 T01290114 50007
KDSV - Dansville, New York, USA
Distance from station: SE 62mi, 100km
Updated: 10/15/2018 12:54pm
Mostly cloudy
Mostly cloudy
 Wind from SSW
Wind: SSW 9 mph , 15 km/h, Gust: 17 mph , 28 km/h
Temperature: 66°F , 19°C
Dew Point: 55°F , 13°C
Humidity: 68%
Barometer: 1009.5 hPa
Clouds: Mostly cloudy
Visibility: 10 miles , 16 km
Cloud details: Partly cloudy 2600 ft
Mostly cloudy 4000 ft
2018/10/15 16:54 KDSV 151654Z AUTO 20008G15KT 10SM SCT026 BKN040 19/13 A2981 RMK AO2 SLP103 T01890133
 
CYHM - Hamilton Airport, Ontario, Canada
Distance from station: W 63mi, 101km
Updated: 10/15/2018 1:00pm
Light rain, Mist, Overcast
Light rain, Mist, Overcast
 Wind from WSW
Wind: WSW 15 mph , 24 km/h, Gust: 22 mph , 35 km/h
Temperature: 54°F , 12°C
Dew Point: 52°F , 11°C
Humidity: 94%
Barometer: 1009.8 hPa
Summary: Light rain, Mist
Clouds: Overcast
Visibility: 6 miles , 10 km
Cloud details: Partly cloudy 1200 ft
Mostly cloudy 2200 ft
Overcast 4200 ft
2018/10/15 17:00 CYHM 151700Z 24013G19KT 6SM -RA BR SCT012 BKN022 OVC042 12/11 A2982 RMK SF3SC3SC2 SLP103
CWNC - Cobourg (mars), Ontario, Canada
Distance from station: NNE 63mi, 102km
Updated: 10/15/2018 1:00pm

 Wind from SW
Wind: SW 14 mph , 22 km/h
Temperature: 54°F , 12°C
Dew Point: 54°F , 12°C
Humidity: 100%
2018/10/15 17:00 CWNC 151700Z AUTO 22012KT 12/12 RMK AO1 5PAST HR 8035 SLP063 P0002 T01180115 50010